sensor_id;sensor_type;location;lat;lon;timestamp;P1;durP1;ratioP1;P2;durP2;ratioP2
75377;SDS011;63959;51.960;5.886;2023-02-18T00:01:40;63.67;;;19.92;;
75377;SDS011;63959;51.960;5.886;2023-02-18T00:04:09;64.97;;;21.83;;
75377;SDS011;63959;51.960;5.886;2023-02-18T00:06:40;51.00;;;18.30;;
75377;SDS011;63959;51.960;5.886;2023-02-18T00:09:09;58.28;;;19.45;;
75377;SDS011;63959;51.960;5.886;2023-02-18T00:11:38;54.97;;;16.35;;
75377;SDS011;63959;51.960;5.886;2023-02-18T00:14:07;56.67;;;20.15;;
75377;SDS011;63959;51.960;5.886;2023-02-18T00:16:36;60.47;;;19.63;;
75377;SDS011;63959;51.960;5.886;2023-02-18T00:19:05;58.10;;;20.20;;
75377;SDS011;63959;51.960;5.886;2023-02-18T00:21:35;66.00;;;20.40;;
75377;SDS011;63959;51.960;5.886;2023-02-18T00:24:07;72.72;;;23.30;;
75377;SDS011;63959;51.960;5.886;2023-02-18T00:26:36;68.88;;;21.75;;
75377;SDS011;63959;51.960;5.886;2023-02-18T00:29:04;50.97;;;16.63;;
75377;SDS011;63959;51.960;5.886;2023-02-18T00:31:34;53.75;;;17.95;;
75377;SDS011;63959;51.960;5.886;2023-02-18T00:34:03;69.63;;;22.88;;
75377;SDS011;63959;51.960;5.886;2023-02-18T00:36:33;49.90;;;17.85;;
75377;SDS011;63959;51.960;5.886;2023-02-18T00:39:03;66.15;;;23.40;;
75377;SDS011;63959;51.960;5.886;2023-02-18T00:41:35;61.15;;;20.83;;
75377;SDS011;63959;51.960;5.886;2023-02-18T00:44:04;62.47;;;20.60;;
75377;SDS011;63959;51.960;5.886;2023-02-18T00:46:34;66.25;;;19.05;;
75377;SDS011;63959;51.960;5.886;2023-02-18T00:49:05;52.13;;;17.38;;
75377;SDS011;63959;51.960;5.886;2023-02-18T00:51:34;50.92;;;17.33;;
75377;SDS011;63959;51.960;5.886;2023-02-18T00:54:03;66.82;;;21.42;;
75377;SDS011;63959;51.960;5.886;2023-02-18T00:56:32;59.25;;;19.85;;
75377;SDS011;63959;51.960;5.886;2023-02-18T00:59:03;67.93;;;21.88;;
75377;SDS011;63959;51.960;5.886;2023-02-18T01:01:31;61.47;;;20.95;;
75377;SDS011;63959;51.960;5.886;2023-02-18T01:04:02;54.53;;;17.20;;
75377;SDS011;63959;51.960;5.886;2023-02-18T01:06:32;53.13;;;19.70;;
75377;SDS011;63959;51.960;5.886;2023-02-18T01:09:01;52.88;;;18.73;;
75377;SDS011;63959;51.960;5.886;2023-02-18T01:11:30;47.70;;;15.27;;
75377;SDS011;63959;51.960;5.886;2023-02-18T01:13:59;52.95;;;19.58;;
75377;SDS011;63959;51.960;5.886;2023-02-18T01:16:31;49.90;;;18.80;;
75377;SDS011;63959;51.960;5.886;2023-02-18T01:18:59;53.22;;;19.35;;
75377;SDS011;63959;51.960;5.886;2023-02-18T01:21:28;42.65;;;16.50;;
75377;SDS011;63959;51.960;5.886;2023-02-18T01:23:57;58.70;;;19.90;;
75377;SDS011;63959;51.960;5.886;2023-02-18T01:26:26;54.05;;;20.00;;
75377;SDS011;63959;51.960;5.886;2023-02-18T01:28:57;50.55;;;18.85;;
75377;SDS011;63959;51.960;5.886;2023-02-18T01:31:31;37.28;;;15.02;;
75377;SDS011;63959;51.960;5.886;2023-02-18T01:34:00;59.55;;;21.77;;
75377;SDS011;63959;51.960;5.886;2023-02-18T01:36:28;44.70;;;15.45;;
75377;SDS011;63959;51.960;5.886;2023-02-18T01:38:57;55.28;;;18.73;;
75377;SDS011;63959;51.960;5.886;2023-02-18T01:41:26;54.92;;;19.88;;
75377;SDS011;63959;51.960;5.886;2023-02-18T01:46:41;52.15;;;17.27;;
75377;SDS011;63959;51.960;5.886;2023-02-18T01:49:11;63.78;;;22.55;;
75377;SDS011;63959;51.960;5.886;2023-02-18T01:51:46;61.40;;;20.67;;
75377;SDS011;63959;51.960;5.886;2023-02-18T01:54:17;63.40;;;21.15;;
75377;SDS011;63959;51.960;5.886;2023-02-18T01:56:47;77.40;;;24.73;;
75377;SDS011;63959;51.960;5.886;2023-02-18T01:59:19;67.88;;;23.42;;
75377;SDS011;63959;51.960;5.886;2023-02-18T02:01:51;62.80;;;23.02;;
75377;SDS011;63959;51.960;5.886;2023-02-18T02:04:21;66.65;;;19.02;;
75377;SDS011;63959;51.960;5.886;2023-02-18T02:06:50;72.20;;;22.60;;
75377;SDS011;63959;51.960;5.886;2023-02-18T02:09:22;67.68;;;22.02;;
75377;SDS011;63959;51.960;5.886;2023-02-18T02:12:08;98.03;;;28.65;;
75377;SDS011;63959;51.960;5.886;2023-02-18T02:14:42;79.35;;;25.38;;
75377;SDS011;63959;51.960;5.886;2023-02-18T02:17:16;80.22;;;23.05;;
75377;SDS011;63959;51.960;5.886;2023-02-18T02:20:07;82.32;;;26.50;;
75377;SDS011;63959;51.960;5.886;2023-02-18T02:22:50;87.15;;;24.70;;
75377;SDS011;63959;51.960;5.886;2023-02-18T02:25:29;91.43;;;27.73;;
75377;SDS011;63959;51.960;5.886;2023-02-18T02:30:52;95.90;;;27.48;;
75377;SDS011;63959;51.960;5.886;2023-02-18T02:33:38;78.72;;;24.15;;
75377;SDS011;63959;51.960;5.886;2023-02-18T02:36:13;76.00;;;25.25;;
75377;SDS011;63959;51.960;5.886;2023-02-18T02:38:45;108.90;;;29.17;;
75377;SDS011;63959;51.960;5.886;2023-02-18T02:43:49;91.65;;;26.45;;
75377;SDS011;63959;51.960;5.886;2023-02-18T02:46:20;92.07;;;26.70;;
75377;SDS011;63959;51.960;5.886;2023-02-18T02:48:51;77.07;;;23.23;;
75377;SDS011;63959;51.960;5.886;2023-02-18T02:51:25;96.95;;;27.42;;
75377;SDS011;63959;51.960;5.886;2023-02-18T02:53:57;98.63;;;30.70;;
75377;SDS011;63959;51.960;5.886;2023-02-18T02:56:38;99.72;;;24.77;;
75377;SDS011;63959;51.960;5.886;2023-02-18T02:59:10;128.95;;;31.38;;
75377;SDS011;63959;51.960;5.886;2023-02-18T03:01:46;99.35;;;27.08;;
75377;SDS011;63959;51.960;5.886;2023-02-18T03:04:30;95.05;;;25.95;;
75377;SDS011;63959;51.960;5.886;2023-02-18T03:07:13;81.72;;;24.10;;
75377;SDS011;63959;51.960;5.886;2023-02-18T03:09:50;108.75;;;26.45;;
75377;SDS011;63959;51.960;5.886;2023-02-18T03:12:23;99.93;;;28.75;;
75377;SDS011;63959;51.960;5.886;2023-02-18T03:14:57;102.60;;;26.85;;
75377;SDS011;63959;51.960;5.886;2023-02-18T03:17:29;105.47;;;26.55;;
75377;SDS011;63959;51.960;5.886;2023-02-18T03:20:01;114.80;;;31.45;;
75377;SDS011;63959;51.960;5.886;2023-02-18T03:22:35;102.70;;;27.17;;
75377;SDS011;63959;51.960;5.886;2023-02-18T03:25:07;114.72;;;29.83;;
75377;SDS011;63959;51.960;5.886;2023-02-18T03:27:39;106.25;;;26.45;;
75377;SDS011;63959;51.960;5.886;2023-02-18T03:30:11;91.18;;;25.90;;
75377;SDS011;63959;51.960;5.886;2023-02-18T03:32:41;60.90;;;17.73;;
75377;SDS011;63959;51.960;5.886;2023-02-18T03:35:12;74.53;;;21.13;;
75377;SDS011;63959;51.960;5.886;2023-02-18T03:37:44;56.28;;;18.25;;
75377;SDS011;63959;51.960;5.886;2023-02-18T03:40:15;81.60;;;21.10;;
75377;SDS011;63959;51.960;5.886;2023-02-18T03:42:48;64.85;;;20.33;;
75377;SDS011;63959;51.960;5.886;2023-02-18T03:45:17;65.65;;;20.75;;
75377;SDS011;63959;51.960;5.886;2023-02-18T03:47:46;69.15;;;19.88;;
75377;SDS011;63959;51.960;5.886;2023-02-18T03:50:15;94.35;;;24.55;;
75377;SDS011;63959;51.960;5.886;2023-02-18T03:52:46;63.45;;;16.35;;
75377;SDS011;63959;51.960;5.886;2023-02-18T03:55:15;60.92;;;18.50;;
75377;SDS011;63959;51.960;5.886;2023-02-18T03:57:44;58.13;;;16.27;;
75377;SDS011;63959;51.960;5.886;2023-02-18T04:00:13;44.78;;;13.57;;
75377;SDS011;63959;51.960;5.886;2023-02-18T04:02:42;52.40;;;16.63;;
75377;SDS011;63959;51.960;5.886;2023-02-18T04:05:11;50.47;;;13.88;;
75377;SDS011;63959;51.960;5.886;2023-02-18T04:07:39;59.65;;;16.23;;
75377;SDS011;63959;51.960;5.886;2023-02-18T04:10:11;61.22;;;18.45;;
75377;SDS011;63959;51.960;5.886;2023-02-18T04:12:40;35.33;;;11.07;;
75377;SDS011;63959;51.960;5.886;2023-02-18T04:15:08;71.82;;;17.95;;
75377;SDS011;63959;51.960;5.886;2023-02-18T04:17:38;80.20;;;19.00;;
75377;SDS011;63959;51.960;5.886;2023-02-18T04:20:07;75.18;;;17.88;;
75377;SDS011;63959;51.960;5.886;2023-02-18T04:22:36;40.33;;;13.02;;
75377;SDS011;63959;51.960;5.886;2023-02-18T04:25:05;47.28;;;13.05;;
75377;SDS011;63959;51.960;5.886;2023-02-18T04:27:37;51.20;;;14.07;;
75377;SDS011;63959;51.960;5.886;2023-02-18T04:30:06;48.42;;;14.43;;
75377;SDS011;63959;51.960;5.886;2023-02-18T04:32:35;41.63;;;13.23;;
75377;SDS011;63959;51.960;5.886;2023-02-18T04:35:04;28.23;;;9.63;;
75377;SDS011;63959;51.960;5.886;2023-02-18T04:37:33;40.95;;;12.27;;
75377;SDS011;63959;51.960;5.886;2023-02-18T04:40:02;45.67;;;12.68;;
75377;SDS011;63959;51.960;5.886;2023-02-18T04:42:33;38.17;;;10.60;;
75377;SDS011;63959;51.960;5.886;2023-02-18T04:45:05;29.77;;;9.52;;
75377;SDS011;63959;51.960;5.886;2023-02-18T04:47:34;32.03;;;9.80;;
75377;SDS011;63959;51.960;5.886;2023-02-18T04:50:02;33.80;;;9.38;;
75377;SDS011;63959;51.960;5.886;2023-02-18T04:52:31;37.05;;;10.38;;
75377;SDS011;63959;51.960;5.886;2023-02-18T04:55:00;26.83;;;8.23;;
75377;SDS011;63959;51.960;5.886;2023-02-18T04:57:29;23.27;;;6.90;;
75377;SDS011;63959;51.960;5.886;2023-02-18T04:59:57;28.15;;;8.15;;
75377;SDS011;63959;51.960;5.886;2023-02-18T05:02:29;29.42;;;9.15;;
75377;SDS011;63959;51.960;5.886;2023-02-18T05:04:58;37.35;;;9.77;;
75377;SDS011;63959;51.960;5.886;2023-02-18T05:07:27;25.05;;;8.90;;
75377;SDS011;63959;51.960;5.886;2023-02-18T05:09:58;30.08;;;7.75;;
75377;SDS011;63959;51.960;5.886;2023-02-18T05:12:26;22.30;;;6.85;;
75377;SDS011;63959;51.960;5.886;2023-02-18T05:14:55;24.15;;;7.38;;
75377;SDS011;63959;51.960;5.886;2023-02-18T05:17:24;23.27;;;7.35;;
75377;SDS011;63959;51.960;5.886;2023-02-18T05:19:55;20.58;;;6.50;;
75377;SDS011;63959;51.960;5.886;2023-02-18T05:22:23;21.58;;;6.53;;
75377;SDS011;63959;51.960;5.886;2023-02-18T05:24:52;22.65;;;6.90;;
75377;SDS011;63959;51.960;5.886;2023-02-18T05:27:21;21.60;;;7.88;;
75377;SDS011;63959;51.960;5.886;2023-02-18T05:29:50;18.30;;;7.03;;
75377;SDS011;63959;51.960;5.886;2023-02-18T05:32:18;19.05;;;7.50;;
75377;SDS011;63959;51.960;5.886;2023-02-18T05:34:47;19.05;;;7.25;;
75377;SDS011;63959;51.960;5.886;2023-02-18T05:37:18;14.07;;;5.40;;
75377;SDS011;63959;51.960;5.886;2023-02-18T05:39:47;15.85;;;6.18;;
75377;SDS011;63959;51.960;5.886;2023-02-18T05:42:16;14.77;;;5.18;;
75377;SDS011;63959;51.960;5.886;2023-02-18T05:44:45;16.38;;;6.22;;
75377;SDS011;63959;51.960;5.886;2023-02-18T05:47:14;16.00;;;5.50;;
75377;SDS011;63959;51.960;5.886;2023-02-18T05:49:43;17.52;;;6.45;;
75377;SDS011;63959;51.960;5.886;2023-02-18T05:52:11;15.50;;;4.88;;
75377;SDS011;63959;51.960;5.886;2023-02-18T05:54:43;11.35;;;4.50;;
75377;SDS011;63959;51.960;5.886;2023-02-18T05:57:12;10.32;;;4.03;;
75377;SDS011;63959;51.960;5.886;2023-02-18T05:59:40;10.82;;;4.10;;
75377;SDS011;63959;51.960;5.886;2023-02-18T06:02:09;10.45;;;4.22;;
75377;SDS011;63959;51.960;5.886;2023-02-18T06:04:38;9.85;;;3.70;;
75377;SDS011;63959;51.960;5.886;2023-02-18T06:07:07;11.52;;;4.22;;
75377;SDS011;63959;51.960;5.886;2023-02-18T06:09:35;10.07;;;3.70;;
75377;SDS011;63959;51.960;5.886;2023-02-18T06:12:07;10.52;;;4.10;;
75377;SDS011;63959;51.960;5.886;2023-02-18T06:14:35;7.72;;;3.13;;
75377;SDS011;63959;51.960;5.886;2023-02-18T06:17:07;9.15;;;4.10;;
75377;SDS011;63959;51.960;5.886;2023-02-18T06:19:36;10.13;;;4.05;;
75377;SDS011;63959;51.960;5.886;2023-02-18T06:22:04;11.23;;;4.88;;
75377;SDS011;63959;51.960;5.886;2023-02-18T06:24:33;13.10;;;5.70;;
75377;SDS011;63959;51.960;5.886;2023-02-18T06:27:02;11.40;;;5.10;;
75377;SDS011;63959;51.960;5.886;2023-02-18T06:29:35;12.60;;;5.45;;
75377;SDS011;63959;51.960;5.886;2023-02-18T06:32:04;15.43;;;5.85;;
75377;SDS011;63959;51.960;5.886;2023-02-18T06:34:33;13.35;;;5.10;;
75377;SDS011;63959;51.960;5.886;2023-02-18T06:37:01;11.00;;;4.85;;
75377;SDS011;63959;51.960;5.886;2023-02-18T06:39:33;10.27;;;4.30;;
75377;SDS011;63959;51.960;5.886;2023-02-18T06:42:02;11.55;;;4.10;;
75377;SDS011;63959;51.960;5.886;2023-02-18T06:44:30;11.65;;;4.57;;
75377;SDS011;63959;51.960;5.886;2023-02-18T06:47:02;11.77;;;4.85;;
75377;SDS011;63959;51.960;5.886;2023-02-18T06:49:30;10.70;;;4.30;;
75377;SDS011;63959;51.960;5.886;2023-02-18T06:52:01;14.07;;;4.75;;
75377;SDS011;63959;51.960;5.886;2023-02-18T06:54:30;12.38;;;4.03;;
75377;SDS011;63959;51.960;5.886;2023-02-18T06:56:58;12.20;;;4.50;;
75377;SDS011;63959;51.960;5.886;2023-02-18T06:59:30;11.50;;;4.30;;
75377;SDS011;63959;51.960;5.886;2023-02-18T07:01:59;10.52;;;3.90;;
75377;SDS011;63959;51.960;5.886;2023-02-18T07:04:30;12.52;;;4.30;;
75377;SDS011;63959;51.960;5.886;2023-02-18T07:06:59;11.82;;;4.32;;
75377;SDS011;63959;51.960;5.886;2023-02-18T07:09:28;12.45;;;4.45;;
75377;SDS011;63959;51.960;5.886;2023-02-18T07:11:56;11.35;;;4.22;;
75377;SDS011;63959;51.960;5.886;2023-02-18T07:14:25;11.63;;;4.13;;
75377;SDS011;63959;51.960;5.886;2023-02-18T07:16:54;12.68;;;5.13;;
75377;SDS011;63959;51.960;5.886;2023-02-18T07:19:23;16.45;;;5.43;;
75377;SDS011;63959;51.960;5.886;2023-02-18T07:21:56;14.85;;;5.60;;
75377;SDS011;63959;51.960;5.886;2023-02-18T07:24:26;15.60;;;6.03;;
75377;SDS011;63959;51.960;5.886;2023-02-18T07:26:54;16.00;;;6.60;;
75377;SDS011;63959;51.960;5.886;2023-02-18T07:29:23;13.85;;;6.40;;
75377;SDS011;63959;51.960;5.886;2023-02-18T07:31:52;14.43;;;6.65;;
75377;SDS011;63959;51.960;5.886;2023-02-18T07:34:21;13.98;;;6.03;;
75377;SDS011;63959;51.960;5.886;2023-02-18T07:36:50;14.25;;;7.25;;
75377;SDS011;63959;51.960;5.886;2023-02-18T07:39:21;14.25;;;6.85;;
75377;SDS011;63959;51.960;5.886;2023-02-18T07:41:50;16.73;;;6.90;;
75377;SDS011;63959;51.960;5.886;2023-02-18T07:44:22;14.82;;;6.72;;
75377;SDS011;63959;51.960;5.886;2023-02-18T07:46:52;17.98;;;6.82;;
75377;SDS011;63959;51.960;5.886;2023-02-18T07:49:20;17.50;;;7.28;;
75377;SDS011;63959;51.960;5.886;2023-02-18T07:51:49;20.08;;;7.95;;
75377;SDS011;63959;51.960;5.886;2023-02-18T07:54:21;14.88;;;6.78;;
75377;SDS011;63959;51.960;5.886;2023-02-18T07:56:49;16.95;;;6.80;;
75377;SDS011;63959;51.960;5.886;2023-02-18T07:59:19;15.70;;;6.80;;
75377;SDS011;63959;51.960;5.886;2023-02-18T08:01:48;14.82;;;6.47;;
75377;SDS011;63959;51.960;5.886;2023-02-18T08:04:17;18.77;;;5.88;;
75377;SDS011;63959;51.960;5.886;2023-02-18T08:06:46;17.17;;;5.93;;
75377;SDS011;63959;51.960;5.886;2023-02-18T08:09:15;14.00;;;5.45;;
75377;SDS011;63959;51.960;5.886;2023-02-18T08:11:47;12.77;;;4.93;;
75377;SDS011;63959;51.960;5.886;2023-02-18T08:14:18;21.23;;;5.65;;
75377;SDS011;63959;51.960;5.886;2023-02-18T08:16:47;22.70;;;5.95;;
75377;SDS011;63959;51.960;5.886;2023-02-18T08:19:15;14.20;;;4.70;;
75377;SDS011;63959;51.960;5.886;2023-02-18T08:21:45;13.23;;;4.80;;
75377;SDS011;63959;51.960;5.886;2023-02-18T08:24:14;12.27;;;5.03;;
75377;SDS011;63959;51.960;5.886;2023-02-18T08:26:43;13.98;;;4.75;;
75377;SDS011;63959;51.960;5.886;2023-02-18T08:29:14;16.27;;;5.28;;
75377;SDS011;63959;51.960;5.886;2023-02-18T08:31:43;15.05;;;5.82;;
75377;SDS011;63959;51.960;5.886;2023-02-18T08:34:12;13.38;;;6.20;;
75377;SDS011;63959;51.960;5.886;2023-02-18T08:36:40;15.73;;;6.13;;
75377;SDS011;63959;51.960;5.886;2023-02-18T08:39:09;17.33;;;6.45;;
75377;SDS011;63959;51.960;5.886;2023-02-18T08:41:38;18.75;;;6.55;;
75377;SDS011;63959;51.960;5.886;2023-02-18T08:44:06;15.95;;;7.40;;
75377;SDS011;63959;51.960;5.886;2023-02-18T08:46:38;17.90;;;6.82;;
75377;SDS011;63959;51.960;5.886;2023-02-18T08:49:06;19.92;;;8.15;;
75377;SDS011;63959;51.960;5.886;2023-02-18T08:51:35;24.02;;;8.05;;
75377;SDS011;63959;51.960;5.886;2023-02-18T08:54:04;23.83;;;7.68;;
75377;SDS011;63959;51.960;5.886;2023-02-18T08:56:32;22.95;;;8.50;;
75377;SDS011;63959;51.960;5.886;2023-02-18T08:59:01;25.10;;;7.90;;
75377;SDS011;63959;51.960;5.886;2023-02-18T09:01:30;23.00;;;8.30;;
75377;SDS011;63959;51.960;5.886;2023-02-18T09:04:01;22.35;;;7.90;;
75377;SDS011;63959;51.960;5.886;2023-02-18T09:06:30;15.07;;;5.40;;
75377;SDS011;63959;51.960;5.886;2023-02-18T09:08:59;19.35;;;5.43;;
75377;SDS011;63959;51.960;5.886;2023-02-18T09:11:28;15.70;;;3.95;;
75377;SDS011;63959;51.960;5.886;2023-02-18T09:13:57;15.30;;;4.05;;
75377;SDS011;63959;51.960;5.886;2023-02-18T09:16:25;9.98;;;3.78;;
75377;SDS011;63959;51.960;5.886;2023-02-18T09:18:55;15.07;;;3.67;;
75377;SDS011;63959;51.960;5.886;2023-02-18T09:21:26;16.35;;;3.78;;
75377;SDS011;63959;51.960;5.886;2023-02-18T09:23:56;13.52;;;3.70;;
75377;SDS011;63959;51.960;5.886;2023-02-18T09:26:25;17.13;;;4.82;;
75377;SDS011;63959;51.960;5.886;2023-02-18T09:28:55;15.48;;;4.18;;
75377;SDS011;63959;51.960;5.886;2023-02-18T09:31:24;21.02;;;4.97;;
75377;SDS011;63959;51.960;5.886;2023-02-18T09:33:55;20.52;;;5.40;;
75377;SDS011;63959;51.960;5.886;2023-02-18T09:36:23;19.88;;;5.65;;
75377;SDS011;63959;51.960;5.886;2023-02-18T09:38:56;20.13;;;5.57;;
75377;SDS011;63959;51.960;5.886;2023-02-18T09:41:29;17.20;;;4.45;;
75377;SDS011;63959;51.960;5.886;2023-02-18T09:44:03;11.85;;;4.40;;
75377;SDS011;63959;51.960;5.886;2023-02-18T09:46:33;19.17;;;4.93;;
75377;SDS011;63959;51.960;5.886;2023-02-18T09:49:05;15.27;;;3.97;;
75377;SDS011;63959;51.960;5.886;2023-02-18T09:51:37;16.33;;;3.78;;
75377;SDS011;63959;51.960;5.886;2023-02-18T09:54:10;13.85;;;3.63;;
75377;SDS011;63959;51.960;5.886;2023-02-18T09:56:42;12.98;;;3.33;;
75377;SDS011;63959;51.960;5.886;2023-02-18T09:59:15;14.15;;;3.25;;
75377;SDS011;63959;51.960;5.886;2023-02-18T10:01:45;18.13;;;3.70;;
75377;SDS011;63959;51.960;5.886;2023-02-18T10:04:18;14.15;;;3.00;;
75377;SDS011;63959;51.960;5.886;2023-02-18T10:06:48;15.88;;;3.38;;
75377;SDS011;63959;51.960;5.886;2023-02-18T10:09:22;13.13;;;3.13;;
75377;SDS011;63959;51.960;5.886;2023-02-18T10:11:56;11.88;;;2.90;;
75377;SDS011;63959;51.960;5.886;2023-02-18T10:14:27;13.38;;;3.45;;
75377;SDS011;63959;51.960;5.886;2023-02-18T10:16:56;14.00;;;3.28;;
75377;SDS011;63959;51.960;5.886;2023-02-18T10:19:28;14.68;;;3.38;;
75377;SDS011;63959;51.960;5.886;2023-02-18T10:21:59;13.98;;;3.67;;
75377;SDS011;63959;51.960;5.886;2023-02-18T10:24:32;12.07;;;2.95;;
75377;SDS011;63959;51.960;5.886;2023-02-18T10:27:05;13.05;;;2.55;;
75377;SDS011;63959;51.960;5.886;2023-02-18T10:29:34;16.25;;;3.42;;
75377;SDS011;63959;51.960;5.886;2023-02-18T10:32:05;15.63;;;3.20;;
75377;SDS011;63959;51.960;5.886;2023-02-18T10:34:38;11.93;;;3.28;;
75377;SDS011;63959;51.960;5.886;2023-02-18T10:37:13;14.10;;;3.22;;
75377;SDS011;63959;51.960;5.886;2023-02-18T10:39:50;11.43;;;3.20;;
75377;SDS011;63959;51.960;5.886;2023-02-18T10:42:23;11.68;;;2.95;;
75377;SDS011;63959;51.960;5.886;2023-02-18T10:44:57;16.02;;;3.03;;
75377;SDS011;63959;51.960;5.886;2023-02-18T10:47:34;16.10;;;3.63;;
75377;SDS011;63959;51.960;5.886;2023-02-18T10:50:09;16.63;;;4.18;;
75377;SDS011;63959;51.960;5.886;2023-02-18T10:52:39;12.13;;;2.70;;
75377;SDS011;63959;51.960;5.886;2023-02-18T10:55:12;18.85;;;3.13;;
75377;SDS011;63959;51.960;5.886;2023-02-18T10:57:48;18.08;;;4.03;;
75377;SDS011;63959;51.960;5.886;2023-02-18T11:00:33;16.25;;;3.65;;
75377;SDS011;63959;51.960;5.886;2023-02-18T11:03:03;11.40;;;3.08;;
75377;SDS011;63959;51.960;5.886;2023-02-18T11:05:51;16.23;;;3.53;;
75377;SDS011;63959;51.960;5.886;2023-02-18T11:08:21;12.38;;;3.80;;
75377;SDS011;63959;51.960;5.886;2023-02-18T11:10:53;12.15;;;3.50;;
75377;SDS011;63959;51.960;5.886;2023-02-18T11:13:23;15.10;;;3.20;;
75377;SDS011;63959;51.960;5.886;2023-02-18T11:15:56;14.48;;;3.53;;
75377;SDS011;63959;51.960;5.886;2023-02-18T11:18:27;15.50;;;3.83;;
75377;SDS011;63959;51.960;5.886;2023-02-18T11:20:57;14.50;;;3.53;;
75377;SDS011;63959;51.960;5.886;2023-02-18T11:23:26;15.35;;;4.05;;
75377;SDS011;63959;51.960;5.886;2023-02-18T11:25:59;17.30;;;3.60;;
75377;SDS011;63959;51.960;5.886;2023-02-18T11:31:18;13.05;;;3.58;;
75377;SDS011;63959;51.960;5.886;2023-02-18T11:33:50;14.88;;;3.92;;
75377;SDS011;63959;51.960;5.886;2023-02-18T11:36:23;18.30;;;4.18;;
75377;SDS011;63959;51.960;5.886;2023-02-18T11:38:55;14.77;;;3.78;;
75377;SDS011;63959;51.960;5.886;2023-02-18T11:41:32;13.10;;;3.90;;
75377;SDS011;63959;51.960;5.886;2023-02-18T11:44:02;17.88;;;4.45;;
75377;SDS011;63959;51.960;5.886;2023-02-18T11:46:32;14.07;;;4.53;;
75377;SDS011;63959;51.960;5.886;2023-02-18T11:49:11;15.63;;;4.90;;
75377;SDS011;63959;51.960;5.886;2023-02-18T11:51:53;18.42;;;4.68;;
75377;SDS011;63959;51.960;5.886;2023-02-18T11:54:25;13.57;;;4.18;;
75377;SDS011;63959;51.960;5.886;2023-02-18T11:56:59;19.60;;;5.90;;
75377;SDS011;63959;51.960;5.886;2023-02-18T11:59:32;14.10;;;3.95;;
75377;SDS011;63959;51.960;5.886;2023-02-18T12:02:02;15.50;;;4.93;;
75377;SDS011;63959;51.960;5.886;2023-02-18T12:04:35;14.10;;;4.28;;
75377;SDS011;63959;51.960;5.886;2023-02-18T12:07:10;15.00;;;4.07;;
75377;SDS011;63959;51.960;5.886;2023-02-18T12:09:41;14.80;;;3.95;;
75377;SDS011;63959;51.960;5.886;2023-02-18T12:12:15;15.52;;;4.45;;
75377;SDS011;63959;51.960;5.886;2023-02-18T12:14:45;20.40;;;5.07;;
75377;SDS011;63959;51.960;5.886;2023-02-18T12:17:18;19.25;;;5.75;;
75377;SDS011;63959;51.960;5.886;2023-02-18T12:19:56;15.32;;;4.93;;
75377;SDS011;63959;51.960;5.886;2023-02-18T12:22:30;15.82;;;5.43;;
75377;SDS011;63959;51.960;5.886;2023-02-18T12:25:03;19.88;;;5.72;;
75377;SDS011;63959;51.960;5.886;2023-02-18T12:27:40;17.27;;;6.05;;
75377;SDS011;63959;51.960;5.886;2023-02-18T12:30:20;15.35;;;5.47;;
75377;SDS011;63959;51.960;5.886;2023-02-18T12:33:00;23.13;;;6.43;;
75377;SDS011;63959;51.960;5.886;2023-02-18T12:35:36;20.92;;;6.35;;
75377;SDS011;63959;51.960;5.886;2023-02-18T12:38:16;18.85;;;6.28;;
75377;SDS011;63959;51.960;5.886;2023-02-18T12:40:51;16.73;;;6.13;;
75377;SDS011;63959;51.960;5.886;2023-02-18T12:43:29;17.05;;;5.43;;
75377;SDS011;63959;51.960;5.886;2023-02-18T12:46:05;15.68;;;6.13;;
75377;SDS011;63959;51.960;5.886;2023-02-18T12:48:42;15.30;;;6.47;;
75377;SDS011;63959;51.960;5.886;2023-02-18T12:51:20;15.77;;;6.45;;
75377;SDS011;63959;51.960;5.886;2023-02-18T12:53:59;16.42;;;5.88;;
75377;SDS011;63959;51.960;5.886;2023-02-18T12:56:37;12.75;;;4.78;;
75377;SDS011;63959;51.960;5.886;2023-02-18T12:59:16;16.10;;;6.43;;
75377;SDS011;63959;51.960;5.886;2023-02-18T13:01:50;14.93;;;5.38;;
75377;SDS011;63959;51.960;5.886;2023-02-18T13:04:23;17.48;;;5.60;;
75377;SDS011;63959;51.960;5.886;2023-02-18T13:06:57;18.15;;;6.35;;
75377;SDS011;63959;51.960;5.886;2023-02-18T13:09:30;17.40;;;5.57;;
75377;SDS011;63959;51.960;5.886;2023-02-18T13:12:05;18.70;;;5.95;;
75377;SDS011;63959;51.960;5.886;2023-02-18T13:14:41;15.40;;;5.07;;
75377;SDS011;63959;51.960;5.886;2023-02-18T13:17:12;15.70;;;5.63;;
75377;SDS011;63959;51.960;5.886;2023-02-18T13:19:43;17.45;;;5.85;;
75377;SDS011;63959;51.960;5.886;2023-02-18T13:22:14;21.77;;;5.65;;
75377;SDS011;63959;51.960;5.886;2023-02-18T13:24:44;15.45;;;6.00;;
75377;SDS011;63959;51.960;5.886;2023-02-18T13:27:13;16.60;;;4.63;;
75377;SDS011;63959;51.960;5.886;2023-02-18T13:29:51;12.25;;;4.90;;
75377;SDS011;63959;51.960;5.886;2023-02-18T13:32:22;16.08;;;5.45;;
75377;SDS011;63959;51.960;5.886;2023-02-18T13:34:54;13.63;;;5.18;;
75377;SDS011;63959;51.960;5.886;2023-02-18T13:37:26;22.17;;;5.47;;
75377;SDS011;63959;51.960;5.886;2023-02-18T13:39:58;17.45;;;5.25;;
75377;SDS011;63959;51.960;5.886;2023-02-18T13:42:35;14.82;;;5.30;;
75377;SDS011;63959;51.960;5.886;2023-02-18T13:47:50;12.68;;;4.97;;
75377;SDS011;63959;51.960;5.886;2023-02-18T13:50:27;13.68;;;4.20;;
75377;SDS011;63959;51.960;5.886;2023-02-18T13:52:57;16.67;;;4.55;;
75377;SDS011;63959;51.960;5.886;2023-02-18T13:55:32;19.85;;;5.20;;
75377;SDS011;63959;51.960;5.886;2023-02-18T13:58:03;13.82;;;4.03;;
75377;SDS011;63959;51.960;5.886;2023-02-18T14:00:33;16.25;;;4.60;;
75377;SDS011;63959;51.960;5.886;2023-02-18T14:03:27;15.90;;;4.88;;
75377;SDS011;63959;51.960;5.886;2023-02-18T14:06:00;11.95;;;4.40;;
75377;SDS011;63959;51.960;5.886;2023-02-18T14:08:30;17.42;;;5.40;;
75377;SDS011;63959;51.960;5.886;2023-02-18T14:13:53;18.15;;;4.57;;
75377;SDS011;63959;51.960;5.886;2023-02-18T14:16:24;14.13;;;4.75;;
75377;SDS011;63959;51.960;5.886;2023-02-18T14:19:02;15.82;;;5.45;;
75377;SDS011;63959;51.960;5.886;2023-02-18T14:21:34;18.50;;;5.43;;
75377;SDS011;63959;51.960;5.886;2023-02-18T14:24:04;13.70;;;5.43;;
75377;SDS011;63959;51.960;5.886;2023-02-18T14:26:36;18.77;;;6.38;;
75377;SDS011;63959;51.960;5.886;2023-02-18T14:29:09;17.98;;;6.20;;
75377;SDS011;63959;51.960;5.886;2023-02-18T14:31:49;17.42;;;6.25;;
75377;SDS011;63959;51.960;5.886;2023-02-18T14:39:59;13.90;;;5.45;;
75377;SDS011;63959;51.960;5.886;2023-02-18T14:42:33;15.32;;;5.05;;
75377;SDS011;63959;51.960;5.886;2023-02-18T14:45:11;17.10;;;5.35;;
75377;SDS011;63959;51.960;5.886;2023-02-18T14:47:55;14.10;;;5.35;;
75377;SDS011;63959;51.960;5.886;2023-02-18T14:50:31;18.35;;;6.13;;
75377;SDS011;63959;51.960;5.886;2023-02-18T14:53:02;11.30;;;4.80;;
75377;SDS011;63959;51.960;5.886;2023-02-18T14:55:36;13.60;;;5.22;;
75377;SDS011;63959;51.960;5.886;2023-02-18T14:58:06;17.27;;;6.28;;
75377;SDS011;63959;51.960;5.886;2023-02-18T15:00:38;12.18;;;4.60;;
75377;SDS011;63959;51.960;5.886;2023-02-18T15:03:08;17.02;;;5.65;;
75377;SDS011;63959;51.960;5.886;2023-02-18T15:05:38;14.82;;;5.82;;
75377;SDS011;63959;51.960;5.886;2023-02-18T15:08:12;17.02;;;5.53;;
75377;SDS011;63959;51.960;5.886;2023-02-18T15:10:47;13.25;;;4.95;;
75377;SDS011;63959;51.960;5.886;2023-02-18T15:13:17;15.55;;;5.85;;
75377;SDS011;63959;51.960;5.886;2023-02-18T15:15:47;16.67;;;6.55;;
75377;SDS011;63959;51.960;5.886;2023-02-18T15:18:20;17.67;;;6.38;;